Time;durP1;ratioP1;P1;durP2;ratioP2;P2;SDS_P1;SDS_P2;PMS_P1;PMS_P2;Temp;Humidity;BMP_temperature;BMP_pressure;BME280_temperature;BME280_humidity;BME280_pressure;Samples;Min_cycle;Max_cycle;Signal;HPM_P1;HPM_P2
2022/06/13 04:00:23;;;;;;;12.45;5.85;;;12.80;99.90;;;;;;6006277;23;20229;-71
2022/06/13 04:02:51;;;;;;;10.45;5.53;;;12.80;99.90;;;;;;4925277;29;20213;-70
2022/06/13 04:05:24;;;;;;;8.77;5.32;;;12.80;99.90;;;;;;4934103;29;20239;-68
2022/06/13 04:07:51;;;;;;;5.28;4.88;;;12.80;99.90;;;;;;4933437;29;20238;-70
2022/06/13 04:10:21;;;;;;;14.52;6.35;;;12.80;99.90;;;;;;4939091;29;20217;-68
2022/06/13 04:13:07;;;;;;;7.95;5.40;;;12.80;99.90;;;;;;4942767;28;20209;-68
2022/06/13 04:16:03;;;;;;;6.55;5.60;;;12.80;99.90;;;;;;4930699;28;20210;-69
2022/06/13 04:18:40;;;;;;;10.57;6.10;;;12.80;99.90;;;;;;4940424;29;20206;-69
2022/06/13 04:21:18;;;;;;;7.78;5.03;;;12.90;99.90;;;;;;4935449;28;20811;-69
2022/06/13 04:23:51;;;;;;;6.60;6.20;;;13.00;99.90;;;;;;4931734;29;20194;-68
2022/06/13 04:26:23;;;;;;;9.50;6.60;;;13.50;99.90;;;;;;4934564;29;20216;-69
2022/06/13 04:28:57;;;;;;;5.70;5.20;;;14.10;99.90;;;;;;4934559;28;20511;-68
2022/06/13 04:31:29;;;;;;;7.03;4.77;;;14.60;99.90;;;;;;4931572;29;20893;-69
2022/06/13 04:34:01;;;;;;;8.50;4.37;;;15.40;99.90;;;;;;4931867;28;20827;-69
2022/06/13 04:36:30;;;;;;;5.60;4.43;;;16.10;99.90;;;;;;4934950;29;20471;-69
2022/06/13 04:39:01;;;;;;;8.60;4.07;;;16.30;99.90;;;;;;4926136;28;20853;-70
2022/06/13 04:41:32;;;;;;;4.83;4.47;;;16.10;99.90;;;;;;4926265;29;20494;-68
2022/06/13 04:44:02;;;;;;;6.43;4.07;;;15.70;99.90;;;;;;4932156;29;20469;-67
2022/06/13 04:46:31;;;;;;;6.23;5.20;;;15.30;99.90;;;;;;4939903;29;21040;-68
2022/06/13 04:49:02;;;;;;;9.80;4.80;;;15.10;99.90;;;;;;4933438;29;20885;-70
2022/06/13 04:51:37;;;;;;;5.03;4.60;;;14.90;99.90;;;;;;4940484;29;20492;-67
2022/06/13 04:54:07;;;;;;;7.80;4.07;;;14.80;99.90;;;;;;4922327;29;20745;-69
2022/06/13 04:56:34;;;;;;;7.83;4.90;;;14.80;99.90;;;;;;4938729;29;20522;-70
2022/06/13 04:59:03;;;;;;;7.50;4.60;;;14.80;99.90;;;;;;4928962;29;20528;-69
2022/06/13 05:01:33;;;;;;;5.73;4.57;;;14.70;99.90;;;;;;4933363;29;20497;-69
2022/06/13 05:04:05;;;;;;;6.53;5.60;;;14.60;99.90;;;;;;4935992;28;20496;-68
2022/06/13 05:06:35;;;;;;;6.60;4.27;;;14.50;99.90;;;;;;4920386;29;20486;-68
2022/06/13 05:09:05;;;;;;;6.53;5.30;;;14.40;99.90;;;;;;4931365;29;21027;-70
2022/06/13 05:11:37;;;;;;;7.40;4.50;;;14.30;99.90;;;;;;4940182;29;20548;-71
2022/06/13 05:14:09;;;;;;;7.93;4.63;;;14.30;99.90;;;;;;4938877;28;20485;-70
2022/06/13 05:16:49;;;;;;;7.83;4.67;;;14.40;99.90;;;;;;4940996;29;20531;-70
2022/06/13 05:19:36;;;;;;;6.40;4.60;;;14.50;99.90;;;;;;4930920;29;20529;-70
2022/06/13 05:22:12;;;;;;;9.63;5.07;;;14.60;99.90;;;;;;4929107;29;20496;-69
2022/06/13 05:25:19;;;;;;;4.57;4.17;;;14.70;99.90;;;;;;4935098;28;20496;-69
2022/06/13 05:27:46;;;;;;;11.30;4.60;;;15.00;99.90;;;;;;4915987;29;20889;-71
2022/06/13 05:30:15;;;;;;;6.03;4.13;;;15.60;99.90;;;;;;4935620;29;20466;-70
2022/06/13 05:32:44;;;;;;;5.03;3.90;;;16.40;99.90;;;;;;4938896;29;20453;-72
2022/06/13 05:35:14;;;;;;;5.77;4.17;;;17.40;99.90;;;;;;4927195;29;20527;-69
2022/06/13 05:37:41;;;;;;;6.97;3.93;;;18.30;99.90;;;;;;4933761;29;20567;-70
2022/06/13 05:40:13;;;;;;;3.97;3.67;;;18.70;99.90;;;;;;4938313;29;20469;-68
2022/06/13 05:42:40;;;;;;;3.80;3.47;;;19.00;99.90;;;;;;4950723;29;20462;-69
2022/06/13 05:45:07;;;;;;;6.83;3.47;;;19.10;99.90;;;;;;4939857;29;20477;-69
2022/06/13 05:47:34;;;;;;;5.10;3.00;;;19.20;99.90;;;;;;4941262;29;20477;-69
2022/06/13 05:50:02;;;;;;;3.37;3.13;;;19.50;99.90;;;;;;4939939;29;21243;-69
2022/06/13 05:52:29;;;;;;;3.10;2.90;;;19.40;99.90;;;;;;4930265;29;20494;-70
2022/06/13 05:54:56;;;;;;;5.87;3.60;;;19.60;99.90;;;;;;4929695;29;20493;-68
2022/06/13 05:57:23;;;;;;;4.37;3.47;;;20.10;99.90;;;;;;4932814;29;20470;-68
2022/06/13 05:59:50;;;;;;;5.87;3.40;;;20.80;99.90;;;;;;4937283;29;20470;-69
2022/06/13 06:02:17;;;;;;;5.73;2.90;;;21.00;99.90;;;;;;4933259;29;20509;-68
2022/06/13 06:04:43;;;;;;;5.77;3.67;;;20.60;99.90;;;;;;4930137;29;20477;-69
2022/06/13 06:07:11;;;;;;;4.43;3.30;;;20.10;99.90;;;;;;4940353;29;20473;-67
2022/06/13 06:09:39;;;;;;;3.27;3.00;;;19.70;99.90;;;;;;4929229;29;20482;-68
2022/06/13 06:12:06;;;;;;;3.90;3.50;;;19.80;99.90;;;;;;4927229;29;20489;-70
2022/06/13 06:14:33;;;;;;;3.50;2.80;;;20.70;99.90;;;;;;4946113;29;20498;-68
2022/06/13 06:16:59;;;;;;;3.23;3.13;;;21.60;99.90;;;;;;4932994;28;20493;-70
2022/06/13 06:19:26;;;;;;;3.60;2.90;;;22.40;99.90;;;;;;4942169;29;21005;-68
2022/06/13 06:21:53;;;;;;;3.13;2.93;;;22.80;99.90;;;;;;4922118;29;20496;-67
2022/06/13 06:24:21;;;;;;;2.57;2.23;;;22.90;99.90;;;;;;4925405;29;20462;-68
2022/06/13 06:26:47;;;;;;;5.33;2.60;;;23.50;99.90;;;;;;4935218;29;20481;-69
2022/06/13 06:29:14;;;;;;;3.10;2.60;;;23.70;99.90;;;;;;4934333;29;20481;-68
2022/06/13 06:31:41;;;;;;;3.90;2.50;;;23.50;99.90;;;;;;4937484;29;20495;-68
2022/06/13 06:34:08;;;;;;;5.40;3.20;;;23.40;99.90;;;;;;4941914;29;20582;-69
2022/06/13 06:36:35;;;;;;;3.00;2.70;;;23.10;99.90;;;;;;4936450;29;20470;-69
2022/06/13 06:39:02;;;;;;;2.53;2.27;;;22.70;99.90;;;;;;4935995;29;20472;-68
2022/06/13 06:41:30;;;;;;;3.07;2.70;;;22.80;99.90;;;;;;4926457;29;20497;-69
2022/06/13 06:43:56;;;;;;;3.40;2.47;;;23.40;99.90;;;;;;4939172;29;20497;-69
2022/06/13 06:46:24;;;;;;;4.87;2.73;;;23.40;99.90;;;;;;4935603;29;20476;-69
2022/06/13 06:48:51;;;;;;;3.37;2.67;;;22.60;99.90;;;;;;4936562;28;20474;-71
2022/06/13 06:51:19;;;;;;;6.90;3.33;;;22.50;99.90;;;;;;4938085;29;20478;-74
2022/06/13 07:02:01;;;;;;;3.13;2.70;;;22.80;99.90;;;;;;4923987;29;20493;-68
2022/06/13 07:04:27;;;;;;;4.30;2.87;;;22.90;99.90;;;;;;4929844;29;20810;-68
2022/06/13 07:06:54;;;;;;;7.10;3.47;;;23.30;99.90;;;;;;4932785;29;20900;-68
2022/06/13 07:09:21;;;;;;;3.50;3.20;;;23.30;99.90;;;;;;4943680;28;20470;-69
2022/06/13 07:11:56;;;;;;;2.80;2.60;;;23.20;99.90;;;;;;4938540;28;20485;-68
2022/06/13 07:14:25;;;;;;;3.50;3.20;;;22.50;99.90;;;;;;4923404;29;20490;-70
2022/06/13 07:16:51;;;;;;;2.77;2.50;;;22.40;99.90;;;;;;4925919;29;20482;-68
2022/06/13 07:19:18;;;;;;;4.07;3.03;;;23.00;99.60;;;;;;4923788;29;20469;-71
2022/06/13 07:21:45;;;;;;;2.83;2.70;;;23.70;99.70;;;;;;4925394;29;20487;-71
2022/06/13 07:24:12;;;;;;;3.50;2.70;;;23.50;97.80;;;;;;4934824;29;20879;-70
2022/06/13 07:26:40;;;;;;;4.03;2.57;;;22.90;98.10;;;;;;4935242;28;20501;-69
2022/06/13 07:29:08;;;;;;;3.03;2.83;;;22.40;99.20;;;;;;4936803;29;20996;-69
2022/06/13 07:31:38;;;;;;;4.20;3.27;;;21.90;99.90;;;;;;4940718;29;20894;-68
2022/06/13 07:34:06;;;;;;;3.23;2.63;;;21.50;99.90;;;;;;4930550;28;20474;-68
2022/06/13 07:36:34;;;;;;;3.87;2.60;;;21.20;99.90;;;;;;4937590;29;20471;-69
2022/06/13 07:39:00;;;;;;;2.93;2.17;;;21.60;99.90;;;;;;4944393;28;20457;-69
2022/06/13 07:41:27;;;;;;;2.80;2.60;;;21.90;98.20;;;;;;4937566;29;20489;-67
2022/06/13 07:43:56;;;;;;;2.87;2.50;;;21.40;97.70;;;;;;4946225;29;20787;-69
2022/06/13 07:46:26;;;;;;;3.00;2.23;;;21.00;97.70;;;;;;4941199;28;20987;-68
2022/06/13 07:48:53;;;;;;;3.80;2.47;;;21.20;98.20;;;;;;4924082;29;20474;-69
2022/06/13 07:51:21;;;;;;;7.07;2.80;;;21.10;99.10;;;;;;4938022;29;20504;-69
2022/06/13 07:53:48;;;;;;;5.97;2.40;;;21.00;99.60;;;;;;4929340;29;20775;-67
2022/06/13 07:56:16;;;;;;;4.70;2.60;;;20.80;99.60;;;;;;4931966;29;20567;-69
2022/06/13 07:58:45;;;;;;;4.67;2.73;;;20.80;99.90;;;;;;4932595;29;20462;-68
2022/06/13 08:01:13;;;;;;;2.50;2.13;;;20.90;99.90;;;;;;4918212;29;20582;-68
2022/06/13 08:03:41;;;;;;;3.93;2.10;;;20.80;99.90;;;;;;4935515;29;20464;-69
2022/06/13 08:06:08;;;;;;;3.63;2.73;;;20.50;99.70;;;;;;4931511;28;20479;-68
2022/06/13 08:08:35;;;;;;;3.37;2.87;;;20.20;99.90;;;;;;4930292;29;20469;-68
2022/06/13 08:11:06;;;;;;;5.33;2.63;;;20.30;99.90;;;;;;4932615;29;20529;-69
2022/06/13 08:13:34;;;;;;;2.40;2.23;;;21.30;99.90;;;;;;4936368;29;20464;-69
2022/06/13 08:16:00;;;;;;;4.90;2.03;;;21.40;99.90;;;;;;4932996;29;20559;-69
2022/06/13 08:18:28;;;;;;;2.57;2.37;;;22.30;99.20;;;;;;4941882;28;20465;-69
2022/06/13 08:20:56;;;;;;;3.13;2.00;;;22.50;97.30;;;;;;4930066;29;20495;-70
2022/06/13 08:23:24;;;;;;;2.50;2.30;;;22.90;97.20;;;;;;4925393;29;20839;-69
2022/06/13 08:25:51;;;;;;;3.17;1.80;;;22.70;96.40;;;;;;4941066;28;20469;-70
2022/06/13 08:28:18;;;;;;;1.60;1.50;;;23.10;95.40;;;;;;4944509;28;20471;-69
2022/06/13 08:30:47;;;;;;;3.70;2.33;;;23.10;95.80;;;;;;4937319;28;20502;-71
2022/06/13 08:33:15;;;;;;;2.80;1.50;;;22.90;95.20;;;;;;4936885;29;20523;-68
2022/06/13 08:35:42;;;;;;;2.13;2.03;;;22.50;95.80;;;;;;4924883;29;20484;-69
2022/06/13 08:38:11;;;;;;;2.60;2.23;;;22.30;96.40;;;;;;4925421;29;20508;-71
2022/06/13 08:40:43;;;;;;;2.67;1.67;;;22.70;96.70;;;;;;4935071;29;20532;-70
2022/06/13 08:43:33;;;;;;;1.97;1.87;;;23.30;96.20;;;;;;4943340;29;20466;-69
2022/06/13 08:46:08;;;;;;;2.77;1.90;;;23.50;94.90;;;;;;4926574;29;20501;-69
2022/06/13 08:48:40;;;;;;;2.73;2.07;;;23.40;94.50;;;;;;4956192;29;20477;-70
2022/06/13 08:51:10;;;;;;;2.00;1.90;;;23.50;94.80;;;;;;4947055;29;20489;-69
2022/06/13 08:53:47;;;;;;;2.83;2.00;;;23.80;93.70;;;;;;4935026;29;20473;-69
2022/06/13 08:56:17;;;;;;;3.20;2.13;;;23.70;93.50;;;;;;4922367;28;20608;-73
2022/06/13 08:58:47;;;;;;;1.60;1.50;;;23.30;93.80;;;;;;4920992;29;20579;-71
2022/06/13 09:01:20;;;;;;;3.60;2.30;;;22.80;93.60;;;;;;4919528;29;20510;-70
2022/06/13 09:03:58;;;;;;;4.87;2.10;;;22.10;94.80;;;;;;4926139;29;20477;-68
2022/06/13 09:06:30;;;;;;;2.10;1.70;;;21.70;94.80;;;;;;4920492;29;20525;-68
2022/06/13 09:09:05;;;;;;;1.03;0.90;;;21.30;95.10;;;;;;4917382;28;20467;-67
2022/06/13 09:11:39;;;;;;;4.37;0.93;;;20.40;94.90;;;;;;4939349;28;20847;-69
2022/06/13 09:14:12;;;;;;;5.23;3.43;;;19.40;98.20;;;;;;4955848;28;20547;-67
2022/06/13 09:16:42;;;;;;;3.93;1.57;;;18.30;99.90;;;;;;4935192;29;21888;-67
2022/06/13 09:19:16;;;;;;;3.60;1.27;;;17.50;99.90;;;;;;4938362;29;20473;-67
2022/06/13 09:21:50;;;;;;;1.10;1.10;;;16.70;99.90;;;;;;4938899;28;20485;-67
2022/06/13 09:24:24;;;;;;;2.00;1.57;;;16.10;99.90;;;;;;4929103;29;20477;-68
2022/06/13 09:26:54;;;;;;;3.17;1.40;;;15.70;99.90;;;;;;4941472;29;20547;-67
2022/06/13 09:29:27;;;;;;;1.77;1.67;;;15.30;99.90;;;;;;4943063;28;20991;-68
2022/06/13 09:31:58;;;;;;;1.20;1.20;;;15.10;99.90;;;;;;4952760;29;20476;-68
2022/06/13 09:34:36;;;;;;;1.77;1.67;;;14.90;99.90;;;;;;4943349;28;20516;-68
2022/06/13 09:37:08;;;;;;;1.70;1.60;;;14.80;99.90;;;;;;4942852;28;20570;-69
2022/06/13 09:39:36;;;;;;;1.83;1.73;;;14.70;99.90;;;;;;4947014;29;20775;-72
2022/06/13 09:42:26;;;;;;;1.70;1.67;;;14.90;99.90;;;;;;4957983;28;20504;-68
2022/06/13 09:45:07;;;;;;;1.80;1.70;;;15.10;99.90;;;;;;4938520;29;20485;-69
2022/06/13 09:47:42;;;;;;;2.07;1.70;;;15.30;99.90;;;;;;4954935;29;20487;-67
2022/06/13 09:50:18;;;;;;;1.90;1.70;;;15.50;99.90;;;;;;4950999;28;20469;-68
2022/06/13 09:52:54;;;;;;;1.93;1.83;;;15.70;99.90;;;;;;4922728;29;20470;-68
2022/06/13 09:55:29;;;;;;;1.93;1.83;;;15.90;99.90;;;;;;4925826;29;21025;-69
2022/06/13 09:58:09;;;;;;;1.40;1.40;;;16.20;99.90;;;;;;4947061;29;20837;-68
2022/06/13 10:00:42;;;;;;;2.33;2.23;;;16.50;99.90;;;;;;4925382;29;20820;-68
2022/06/13 10:03:24;;;;;;;2.17;1.90;;;16.70;99.90;;;;;;4947325;28;20949;-67
2022/06/13 10:06:01;;;;;;;1.80;1.70;;;16.70;99.90;;;;;;4937480;29;20541;-66
2022/06/13 10:08:40;;;;;;;2.20;2.10;;;16.80;99.90;;;;;;4941232;29;20508;-70
2022/06/13 10:11:16;;;;;;;2.30;2.10;;;17.10;99.90;;;;;;4936078;28;20548;-68
2022/06/13 10:13:54;;;;;;;2.13;2.03;;;17.10;99.90;;;;;;4944805;28;20974;-67
2022/06/13 10:16:32;;;;;;;1.93;1.93;;;17.10;99.90;;;;;;4936373;29;20612;-68
2022/06/13 10:19:09;;;;;;;2.10;2.00;;;17.30;99.90;;;;;;4932637;29;20962;-68
2022/06/13 10:21:42;;;;;;;2.10;2.00;;;17.40;99.90;;;;;;4927357;29;20489;-70
2022/06/13 10:24:19;;;;;;;2.10;2.10;;;17.50;99.90;;;;;;4931423;29;20477;-68
2022/06/13 10:26:55;;;;;;;2.75;2.55;;;17.80;99.90;;;;;;4938668;29;20987;-68
2022/06/13 10:29:52;;;;;;;2.60;2.40;;;17.70;99.90;;;;;;4932722;29;20477;-67
2022/06/13 10:32:32;;;;;;;2.13;1.93;;;17.70;99.90;;;;;;4938448;28;20492;-69
2022/06/13 10:35:14;;;;;;;2.33;2.13;;;18.00;99.90;;;;;;4920189;29;20522;-69
2022/06/13 10:37:51;;;;;;;5.23;2.80;;;17.90;99.90;;;;;;4920613;29;20539;-69
2022/06/13 10:40:18;;;;;;;2.33;2.23;;;17.90;99.90;;;;;;4929676;29;20503;-71
2022/06/13 10:42:47;;;;;;;2.43;2.10;;;17.90;99.90;;;;;;4916454;29;20485;-68
2022/06/13 10:45:16;;;;;;;2.53;2.13;;;18.00;99.90;;;;;;4930182;29;20916;-70
2022/06/13 10:47:49;;;;;;;3.03;1.93;;;18.00;99.90;;;;;;4930258;29;20982;-70
2022/06/13 10:50:22;;;;;;;1.63;1.50;;;18.60;99.90;;;;;;4916279;29;20477;-69
2022/06/13 10:52:58;;;;;;;1.20;1.20;;;18.50;99.90;;;;;;4925193;29;20476;-70
2022/06/13 10:55:26;;;;;;;1.17;1.17;;;18.70;99.90;;;;;;4931291;29;20624;-71
2022/06/13 10:58:00;;;;;;;1.07;1.07;;;18.90;99.90;;;;;;4930835;29;20565;-69
2022/06/13 11:00:28;;;;;;;1.37;1.37;;;18.90;99.90;;;;;;4928140;28;20477;-71
2022/06/13 11:03:10;;;;;;;1.47;1.30;;;18.80;99.90;;;;;;4927320;29;20481;-68
2022/06/13 11:05:52;;;;;;;1.40;1.30;;;18.80;99.90;;;;;;4926685;29;20463;-68
2022/06/13 11:08:19;;;;;;;2.00;1.30;;;18.80;99.90;;;;;;4924665;29;20493;-69
2022/06/13 11:10:53;;;;;;;1.37;1.30;;;;;;;;;;4927234;29;21024;-69
2022/06/13 11:13:28;;;;;;;0.90;0.90;;;18.50;99.90;;;;;;4925378;29;20940;-68
2022/06/13 11:24:24;;;;;;;0.57;0.57;;;17.70;99.90;;;;;;4932031;29;20493;-69
2022/06/13 11:29:39;;;;;;;0.70;0.70;;;16.80;99.90;;;;;;4934052;29;20482;-66
2022/06/13 11:32:18;;;;;;;0.90;0.90;;;16.30;99.90;;;;;;4929995;29;20497;-67
2022/06/13 11:34:45;;;;;;;0.80;0.80;;;16.00;99.90;;;;;;4939404;28;20470;-66
2022/06/13 11:37:19;;;;;;;0.50;0.50;;;15.60;99.90;;;;;;4928207;29;20575;-69
2022/06/13 11:39:47;;;;;;;0.50;0.50;;;15.30;99.90;;;;;;4932440;29;20467;-70
2022/06/13 11:42:18;;;;;;;0.70;0.70;;;15.20;99.90;;;;;;4937788;28;20519;-68
2022/06/13 11:44:51;;;;;;;0.73;0.73;;;15.30;99.90;;;;;;4935274;29;20479;-67
2022/06/13 11:47:18;;;;;;;0.60;0.60;;;15.50;99.90;;;;;;4928839;29;21211;-67
2022/06/13 11:49:47;;;;;;;0.63;0.63;;;15.50;99.90;;;;;;4922672;29;20500;-67
2022/06/13 11:55:24;;;;;;;1.00;1.00;;;15.70;99.90;;;;;;4913879;29;20556;-69
2022/06/13 11:57:56;;;;;;;3.77;1.23;;;15.90;99.90;;;;;;4934281;28;20569;-68
2022/06/13 12:00:36;;;;;;;0.87;0.87;;;16.20;99.90;;;;;;4929430;29;20466;-67
2022/06/13 12:03:20;;;;;;;0.90;0.90;;;16.40;99.90;;;;;;4929225;28;20473;-67
2022/06/13 12:05:50;;;;;;;0.87;0.80;;;16.80;99.90;;;;;;4931180;29;20462;-69
2022/06/13 12:08:24;;;;;;;0.93;0.93;;;17.00;99.90;;;;;;4927643;29;20504;-68
2022/06/13 12:11:01;;;;;;;1.20;0.93;;;17.20;99.90;;;;;;4928402;29;20500;-69
2022/06/13 12:13:30;;;;;;;0.80;0.80;;;17.40;99.90;;;;;;4932716;29;20472;-68
2022/06/13 12:16:09;;;;;;;0.83;0.83;;;17.50;99.90;;;;;;4934290;29;20738;-69
2022/06/13 12:18:47;;;;;;;1.23;1.13;;;17.80;99.90;;;;;;4927011;29;20469;-70
2022/06/13 12:21:22;;;;;;;0.77;0.77;;;18.10;99.90;;;;;;4926387;29;21333;-68
2022/06/13 12:23:56;;;;;;;0.80;0.80;;;18.10;99.90;;;;;;4915021;29;20473;-68
2022/06/13 12:26:26;;;;;;;2.10;0.80;;;18.00;99.90;;;;;;4922572;29;20486;-70
2022/06/13 12:29:06;;;;;;;0.40;0.40;;;17.80;99.90;;;;;;4923616;29;20477;-69
2022/06/13 12:31:40;;;;;;;0.57;0.57;;;17.50;99.90;;;;;;4928443;29;20489;-72
2022/06/13 12:34:21;;;;;;;0.30;0.30;;;17.20;99.90;;;;;;4928084;29;20480;-68
2022/06/13 12:37:01;;;;;;;0.50;0.50;;;17.20;99.90;;;;;;4914779;29;20494;-68
2022/06/13 12:39:46;;;;;;;1.23;1.13;;;17.30;99.90;;;;;;4923504;29;20884;-70
2022/06/13 12:42:36;;;;;;;0.93;0.93;;;17.30;99.90;;;;;;4923653;29;20501;-71
2022/06/13 12:45:31;;;;;;;0.57;0.57;;;17.30;99.90;;;;;;4903284;29;20847;-68
2022/06/13 12:48:20;;;;;;;0.40;0.40;;;17.40;99.90;;;;;;4929993;29;20462;-69
2022/06/13 12:51:01;;;;;;;0.50;0.50;;;17.50;99.90;;;;;;4923899;29;20891;-68
2022/06/13 12:53:44;;;;;;;0.63;0.60;;;17.40;99.90;;;;;;4926736;29;20562;-70
2022/06/13 12:56:21;;;;;;;1.70;0.60;;;17.50;99.90;;;;;;4941821;28;20489;-67
2022/06/13 12:59:01;;;;;;;4.93;0.70;;;17.60;99.90;;;;;;4925336;29;20541;-67
2022/06/13 13:01:36;;;;;;;0.63;0.63;;;17.70;99.90;;;;;;4924531;29;20500;-69
2022/06/13 13:04:27;;;;;;;1.20;0.73;;;17.70;99.90;;;;;;4924946;28;20471;-68
2022/06/13 13:06:59;;;;;;;1.60;0.40;;;17.80;99.90;;;;;;4933387;29;20469;-68
2022/06/13 13:09:50;;;;;;;0.73;0.67;;;18.20;99.90;;;;;;4941513;29;20485;-68
2022/06/13 13:12:54;;;;;;;1.47;0.90;;;18.30;99.90;;;;;;4934133;28;20501;-69
2022/06/13 13:15:30;;;;;;;1.00;1.00;;;18.60;99.90;;;;;;4924573;28;20464;-68
2022/06/13 13:18:02;;;;;;;1.03;0.80;;;18.80;99.90;;;;;;4932849;29;20497;-68
2022/06/13 13:20:37;;;;;;;0.70;0.70;;;19.00;99.90;;;;;;4933542;29;20577;-69
2022/06/13 13:23:11;;;;;;;2.10;0.80;;;19.10;99.90;;;;;;4933088;29;20472;-68
2022/06/13 13:25:43;;;;;;;0.90;0.90;;;19.20;99.90;;;;;;4928369;29;20493;-68
2022/06/13 13:28:22;;;;;;;3.23;0.70;;;19.50;99.90;;;;;;4929354;29;20476;-68
2022/06/13 13:30:54;;;;;;;0.93;0.70;;;20.40;99.90;;;;;;4936175;29;20993;-68
2022/06/13 13:33:51;;;;;;;1.30;1.20;;;19.70;99.90;;;;;;4950947;28;20464;-68
2022/06/13 13:36:25;;;;;;;0.70;0.70;;;19.40;99.90;;;;;;4951377;28;20504;-68
2022/06/13 13:38:57;;;;;;;1.07;0.80;;;19.30;99.90;;;;;;4951444;28;20469;-68
2022/06/13 13:41:31;;;;;;;3.20;0.77;;;19.20;99.90;;;;;;4927585;29;20490;-68
2022/06/13 13:44:03;;;;;;;0.80;0.80;;;19.10;99.90;;;;;;4938353;28;20470;-68
2022/06/13 13:46:36;;;;;;;1.83;0.70;;;18.90;99.90;;;;;;4935034;29;20561;-69
2022/06/13 13:49:07;;;;;;;1.67;1.20;;;18.70;99.90;;;;;;4929578;28;20554;-69
2022/06/13 13:51:40;;;;;;;2.67;1.40;;;18.40;99.90;;;;;;4919381;29;21026;-69
2022/06/13 13:54:14;;;;;;;3.27;1.07;;;18.10;99.90;;;;;;4936074;28;21074;-68
2022/06/13 13:56:44;;;;;;;3.07;1.00;;;17.80;99.90;;;;;;4917346;29;20492;-68
2022/06/13 13:59:14;;;;;;;1.07;1.07;;;17.80;99.90;;;;;;4935271;29;20505;-69
2022/06/13 14:01:56;;;;;;;0.90;0.90;;;17.80;99.90;;;;;;4946915;29;20588;-69
2022/06/13 14:05:03;;;;;;;0.80;0.80;;;17.70;99.90;;;;;;4924158;29;20474;-69
2022/06/13 14:07:59;;;;;;;0.77;0.60;;;17.90;99.90;;;;;;4931743;29;20461;-69
2022/06/13 14:10:28;;;;;;;0.93;0.87;;;18.50;99.90;;;;;;4923074;29;20810;-69
2022/06/13 14:13:05;;;;;;;1.40;1.30;;;18.90;99.90;;;;;;4930928;29;20474;-69
2022/06/13 14:15:35;;;;;;;1.40;0.87;;;19.00;99.90;;;;;;4941685;29;20454;-68
2022/06/13 14:18:05;;;;;;;1.00;1.00;;;18.80;99.90;;;;;;4924187;28;21011;-69
2022/06/13 14:20:32;;;;;;;0.97;0.87;;;18.70;99.90;;;;;;4936619;29;20461;-69
2022/06/13 14:23:03;;;;;;;0.90;0.90;;;18.60;99.90;;;;;;4941779;29;20586;-69
2022/06/13 14:25:38;;;;;;;2.33;0.97;;;18.40;99.90;;;;;;4953483;28;20495;-69
2022/06/13 14:28:09;;;;;;;1.10;1.00;;;18.20;99.90;;;;;;4959155;28;20464;-69
2022/06/13 14:36:07;;;;;;;0.83;0.83;;;18.60;99.90;;;;;;4948730;29;20989;-69
2022/06/13 14:38:47;;;;;;;3.43;1.30;;;18.60;99.90;;;;;;4957589;29;20489;-69
2022/06/13 14:41:17;;;;;;;1.90;1.00;;;18.70;99.90;;;;;;4975626;28;20490;-70
2022/06/13 14:44:01;;;;;;;1.87;1.77;;;18.70;99.90;;;;;;4975641;28;20445;-69
2022/06/13 14:46:41;;;;;;;1.70;1.20;;;18.60;99.90;;;;;;4975638;28;20499;-71
2022/06/13 14:49:17;;;;;;;0.97;0.90;;;18.40;99.90;;;;;;4950554;28;20565;-69
2022/06/13 14:52:09;;;;;;;1.40;1.30;;;18.30;99.90;;;;;;4931223;29;20476;-69
2022/06/13 14:54:57;;;;;;;1.23;0.70;;;18.30;99.90;;;;;;4952881;28;20566;-69
2022/06/13 14:57:52;;;;;;;4.43;1.00;;;18.40;99.90;;;;;;4952944;28;20493;-69
2022/06/13 15:00:23;;;;;;;1.30;1.10;;;18.60;99.90;;;;;;4947861;28;20531;-69
2022/06/13 15:03:09;;;;;;;1.20;1.20;;;18.60;99.90;;;;;;4945433;28;20464;-68
2022/06/13 15:05:56;;;;;;;0.80;0.80;;;18.60;99.90;;;;;;4953202;28;20480;-68
2022/06/13 15:08:46;;;;;;;1.33;1.03;;;18.60;99.90;;;;;;4945932;28;20557;-68
2022/06/13 15:11:16;;;;;;;1.00;1.00;;;18.60;99.90;;;;;;4933943;28;20481;-68
2022/06/13 15:13:45;;;;;;;1.83;1.17;;;18.80;99.90;;;;;;4950656;28;20492;-68
2022/06/13 15:16:14;;;;;;;6.30;1.07;;;18.90;99.90;;;;;;4937595;29;20612;-68
2022/06/13 15:18:47;;;;;;;1.70;1.40;;;18.90;99.90;;;;;;4952749;29;20515;-68
2022/06/13 15:21:20;;;;;;;1.10;1.00;;;18.80;99.90;;;;;;4953000;28;20494;-68
2022/06/13 15:23:49;;;;;;;1.10;1.00;;;19.00;99.90;;;;;;4953801;28;20464;-68
2022/06/13 15:26:27;;;;;;;1.40;1.30;;;19.20;99.90;;;;;;4952735;28;20539;-67
2022/06/13 15:29:15;;;;;;;1.50;0.80;;;19.20;99.90;;;;;;4941917;28;20472;-68
2022/06/13 15:31:44;;;;;;;0.73;0.73;;;19.30;99.90;;;;;;4944567;28;21034;-68
2022/06/13 15:34:13;;;;;;;1.30;1.20;;;19.40;99.90;;;;;;4953059;28;20508;-67
2022/06/13 15:36:42;;;;;;;1.67;1.33;;;19.50;99.90;;;;;;4953952;28;20528;-67
2022/06/13 15:39:12;;;;;;;0.73;0.73;;;19.30;99.90;;;;;;4943063;28;20465;-67
2022/06/13 15:41:43;;;;;;;0.80;0.80;;;19.20;99.90;;;;;;4928621;29;20492;-67
2022/06/13 15:44:15;;;;;;;0.90;0.90;;;19.20;99.90;;;;;;4940971;29;20521;-67
2022/06/13 15:46:48;;;;;;;1.90;1.90;;;19.10;99.90;;;;;;4928965;29;20469;-68
2022/06/13 15:49:16;;;;;;;1.13;1.13;;;19.20;99.90;;;;;;4932771;28;20466;-68
2022/06/13 15:51:59;;;;;;;1.90;1.00;;;19.30;99.90;;;;;;4932777;29;20490;-68
2022/06/13 15:54:26;;;;;;;1.87;1.23;;;19.30;99.90;;;;;;4935342;29;21062;-69
2022/06/13 15:57:03;;;;;;;9.37;2.87;;;19.30;99.90;;;;;;4920739;29;20474;-68
2022/06/13 15:59:47;;;;;;;0.87;0.83;;;19.40;99.90;;;;;;4924222;29;20477;-68
2022/06/13 16:02:15;;;;;;;1.93;1.13;;;19.40;99.90;;;;;;4928767;29;20497;-68
2022/06/13 16:04:42;;;;;;;2.37;1.33;;;19.50;99.90;;;;;;4943284;28;21004;-68
2022/06/13 16:07:09;;;;;;;3.03;1.30;;;19.50;99.90;;;;;;4940982;29;20457;-68
2022/06/13 16:09:40;;;;;;;2.53;1.00;;;19.50;99.90;;;;;;4928367;29;21157;-68
2022/06/13 16:12:11;;;;;;;1.00;1.00;;;19.30;99.90;;;;;;4922387;29;20545;-68
2022/06/13 16:14:44;;;;;;;3.00;1.50;;;19.30;99.90;;;;;;4926698;29;20469;-68
2022/06/13 16:17:16;;;;;;;1.40;0.90;;;19.50;99.90;;;;;;4924019;29;20485;-68
2022/06/13 16:19:43;;;;;;;1.23;1.10;;;19.40;99.90;;;;;;4917008;29;20475;-68
2022/06/13 16:22:12;;;;;;;3.70;1.17;;;19.50;99.90;;;;;;4927787;29;20561;-68
2022/06/13 16:24:43;;;;;;;1.30;0.90;;;19.50;99.90;;;;;;4928325;29;20980;-68
2022/06/13 16:27:13;;;;;;;7.13;0.90;;;20.70;99.90;;;;;;4927340;29;20474;-68
2022/06/13 16:29:41;;;;;;;3.57;1.40;;;19.30;99.90;;;;;;4919623;29;20561;-68
2022/06/13 16:32:09;;;;;;;1.63;0.93;;;19.30;99.90;;;;;;4933047;29;21023;-68
2022/06/13 16:34:36;;;;;;;1.77;1.60;;;19.40;99.90;;;;;;4925277;29;20528;-68
2022/06/13 16:37:05;;;;;;;2.10;1.20;;;19.30;99.90;;;;;;4941376;29;20560;-68
2022/06/13 16:39:38;;;;;;;1.60;0.80;;;19.40;99.90;;;;;;4924562;29;20474;-68
2022/06/13 16:42:13;;;;;;;2.57;1.00;;;19.50;99.90;;;;;;4933176;29;21022;-68
2022/06/13 16:44:43;;;;;;;1.13;1.07;;;19.40;99.90;;;;;;4918503;29;21067;-68
2022/06/13 16:47:11;;;;;;;4.90;1.67;;;;;;;;;;4921388;29;20486;-68
2022/06/13 16:49:39;;;;;;;0.97;0.97;;;;;;;;;;4943968;29;20464;-69
2022/06/13 16:52:09;;;;;;;3.70;1.00;;;18.80;99.90;;;;;;4924526;28;20497;-69
2022/06/13 16:54:41;;;;;;;1.30;1.27;;;18.80;99.90;;;;;;4933801;29;20468;-68
2022/06/13 16:57:17;;;;;;;1.20;1.20;;;18.80;99.90;;;;;;4935199;29;20458;-68
2022/06/13 16:59:54;;;;;;;2.83;1.20;;;19.50;99.90;;;;;;4934584;29;20472;-68
2022/06/13 17:02:23;;;;;;;1.90;1.10;;;18.50;99.90;;;;;;4942642;28;20539;-68
2022/06/13 17:04:51;;;;;;;2.73;1.43;;;18.70;99.90;;;;;;4938500;29;20470;-68
2022/06/13 17:07:20;;;;;;;1.43;0.80;;;18.80;99.90;;;;;;4937925;29;20468;-67
2022/06/13 17:10:07;;;;;;;1.83;1.10;;;18.90;99.90;;;;;;4919524;29;20506;-67
2022/06/13 17:13:00;;;;;;;2.53;1.40;;;18.80;99.90;;;;;;4931593;29;20854;-68
2022/06/13 17:15:34;;;;;;;1.07;1.07;;;18.90;99.90;;;;;;4945966;29;20552;-67
2022/06/13 17:18:03;;;;;;;1.40;1.10;;;18.80;99.90;;;;;;4934984;29;20892;-67
2022/06/13 17:20:33;;;;;;;1.27;1.27;;;18.80;99.90;;;;;;4939840;28;20465;-68
2022/06/13 17:23:01;;;;;;;1.60;1.50;;;18.70;99.90;;;;;;4934130;29;20517;-68
2022/06/13 17:32:06;;;;;;;4.23;1.40;;;18.60;99.90;;;;;;4941966;29;20457;-68
2022/06/13 17:33:45;;;;;;;1.80;1.70;;;18.40;99.90;;;;;;4935116;29;20456;-69
2022/06/13 17:36:12;;;;;;;3.63;1.40;;;18.20;99.90;;;;;;4933898;29;20476;-68
2022/06/13 17:38:38;;;;;;;1.57;1.40;;;18.20;99.90;;;;;;4937955;29;20810;-68
2022/06/13 17:41:06;;;;;;;2.10;1.33;;;18.30;99.90;;;;;;4933467;29;20494;-68
2022/06/13 17:43:34;;;;;;;5.60;0.97;;;18.20;99.90;;;;;;4939496;29;20473;-68
2022/06/13 17:46:02;;;;;;;2.53;1.40;;;18.10;99.90;;;;;;4940830;28;20470;-68
2022/06/13 17:48:30;;;;;;;3.50;1.33;;;18.10;99.90;;;;;;4946691;29;20571;-68
2022/06/13 17:50:58;;;;;;;1.13;1.00;;;18.20;99.90;;;;;;4934042;29;20557;-68